createdAt,value
2018-10-11T00:03:35.799Z,22.24
2018-10-11T00:08:39.064Z,22.22
2018-10-11T00:13:42.333Z,22.23
2018-10-11T00:18:45.601Z,22.23
2018-10-11T00:23:48.876Z,22.22
2018-10-11T00:28:52.183Z,22.23
2018-10-11T00:33:55.457Z,22.23
2018-10-11T00:38:58.728Z,22.19
2018-10-11T00:44:02.002Z,22.22
2018-10-11T00:49:05.293Z,22.21
2018-10-11T00:54:08.899Z,22.20
2018-10-11T00:59:12.520Z,22.22
2018-10-11T01:04:15.889Z,22.20
2018-10-11T01:09:19.230Z,22.18
2018-10-11T01:14:22.475Z,22.19
2018-10-11T01:19:25.752Z,22.23
2018-10-11T01:24:29.033Z,22.20
2018-10-11T01:29:32.320Z,22.16
2018-10-11T01:34:35.587Z,22.17
2018-10-11T01:39:38.866Z,22.20
2018-10-11T01:44:42.132Z,22.16
2018-10-11T01:49:45.391Z,22.19
2018-10-11T01:54:48.664Z,22.20
2018-10-11T01:59:51.932Z,22.15
2018-10-11T02:04:55.195Z,22.14
2018-10-11T02:09:58.473Z,22.13
2018-10-11T02:15:01.740Z,22.18
2018-10-11T02:20:06.057Z,22.16
2018-10-11T02:25:09.770Z,22.20
2018-10-11T02:30:13.652Z,22.16
2018-10-11T02:35:16.909Z,22.14
2018-10-11T02:40:20.191Z,22.12
2018-10-11T02:45:23.535Z,22.13
2018-10-11T02:50:26.799Z,22.17
2018-10-11T02:55:30.180Z,22.16
2018-10-11T03:00:34.313Z,22.16
2018-10-11T03:05:39.423Z,22.14
2018-10-11T03:10:42.703Z,22.14
2018-10-11T03:15:45.973Z,22.15
2018-10-11T03:20:49.240Z,22.15
2018-10-11T03:25:52.500Z,22.14
2018-10-11T03:30:55.880Z,22.12
2018-10-11T03:35:59.139Z,22.15
2018-10-11T03:41:02.504Z,22.13
2018-10-11T03:46:05.763Z,22.10
2018-10-11T03:51:09.029Z,22.10
2018-10-11T03:56:12.305Z,22.05
2018-10-11T04:01:15.572Z,22.15
2018-10-11T04:06:18.918Z,22.20
2018-10-11T04:11:22.181Z,22.11
2018-10-11T04:16:25.492Z,22.05
2018-10-11T04:21:28.916Z,22.05
2018-10-11T04:26:32.204Z,22.05
2018-10-11T04:31:35.499Z,22.05
2018-10-11T04:36:38.796Z,22.03
2018-10-11T04:41:42.301Z,22.03
2018-10-11T04:46:45.568Z,22.02
2018-10-11T04:51:48.855Z,22.03
2018-10-11T04:56:52.116Z,22.02
2018-10-11T05:01:56.224Z,22.00
2018-10-11T05:06:59.528Z,22.03
2018-10-11T05:12:02.804Z,22.02
2018-10-11T05:17:06.098Z,22.03
2018-10-11T05:22:09.372Z,22.01
2018-10-11T05:27:12.661Z,21.97
2018-10-11T05:32:15.974Z,21.95
2018-10-11T05:37:19.227Z,21.93
2018-10-11T05:42:22.512Z,21.95
2018-10-11T05:47:25.800Z,21.96
2018-10-11T05:52:29.080Z,21.92
2018-10-11T05:57:32.360Z,21.95
2018-10-11T06:02:36.468Z,21.91
2018-10-11T06:07:39.755Z,21.92
2018-10-11T06:12:43.492Z,21.89
2018-10-11T06:17:46.811Z,21.94
2018-10-11T06:22:50.107Z,21.93
2018-10-11T06:27:53.376Z,21.93
2018-10-11T06:32:56.852Z,21.91
2018-10-11T06:38:00.533Z,21.89
2018-10-11T06:43:03.835Z,21.91
2018-10-11T06:48:08.823Z,21.89
2018-10-11T06:53:12.399Z,21.87
2018-10-11T06:58:15.685Z,21.99
2018-10-11T07:03:18.992Z,22.12
2018-10-11T07:08:22.621Z,22.21
2018-10-11T07:13:25.900Z,22.19
2018-10-11T07:18:29.161Z,22.27
2018-10-11T07:23:32.444Z,22.19
2018-10-11T07:28:35.729Z,21.78
2018-10-11T07:33:39.013Z,21.74
2018-10-11T07:38:42.302Z,21.72
2018-10-11T07:43:45.615Z,21.69
2018-10-11T07:48:48.886Z,21.68
2018-10-11T07:53:52.165Z,21.72
2018-10-11T07:58:55.460Z,21.85
2018-10-11T08:03:59.128Z,21.68
2018-10-11T08:09:02.509Z,21.70
2018-10-11T08:14:06.007Z,21.84
2018-10-11T08:19:09.768Z,21.86
2018-10-11T08:24:12.906Z,21.86
2018-10-11T08:29:16.401Z,21.90
2018-10-11T08:34:19.684Z,21.92
2018-10-11T08:39:23.118Z,21.97
2018-10-11T08:44:26.388Z,21.93
2018-10-11T08:49:29.655Z,21.84
2018-10-11T08:54:38.391Z,21.91
2018-10-11T08:59:41.795Z,21.84
2018-10-11T09:04:45.564Z,21.82
2018-10-11T09:09:53.562Z,21.83
2018-10-11T09:14:52.125Z,21.79
2018-10-11T09:19:55.401Z,21.77
2018-10-11T09:24:58.679Z,21.78
2018-10-11T09:30:01.961Z,21.79
2018-10-11T09:35:06.074Z,21.72
2018-10-11T09:40:09.711Z,21.80
2018-10-11T09:45:12.982Z,21.84
2018-10-11T09:50:16.284Z,21.61
2018-10-11T09:55:19.548Z,21.84
2018-10-11T10:00:28.144Z,21.88
2018-10-11T10:05:31.417Z,22.03
2018-10-11T10:10:34.755Z,22.06
2018-10-11T10:15:38.055Z,22.08
2018-10-11T10:20:41.331Z,22.11
2018-10-11T10:25:44.616Z,22.14
2018-10-11T10:30:53.994Z,22.16
2018-10-11T10:35:57.281Z,22.21
2018-10-11T10:41:00.558Z,22.21
2018-10-11T10:46:04.773Z,22.23
2018-10-11T10:51:08.793Z,22.27
2018-10-11T10:56:12.074Z,22.26
2018-10-11T11:01:15.357Z,22.30
2018-10-11T11:06:19.104Z,22.43
2018-10-11T11:11:22.360Z,22.43
2018-10-11T11:16:25.628Z,22.50
2018-10-11T11:21:29.273Z,22.55
2018-10-11T11:26:32.556Z,22.53
2018-10-11T11:36:38.135Z,22.64
2018-10-11T11:41:41.406Z,22.65
2018-10-11T11:46:44.684Z,22.71
2018-10-11T11:51:47.947Z,22.72
2018-10-11T11:56:52.011Z,22.75
2018-10-11T12:01:55.525Z,22.76
2018-10-11T12:06:59.081Z,22.78
2018-10-11T12:12:02.513Z,22.79
2018-10-11T12:17:05.926Z,22.82
2018-10-11T12:22:09.281Z,22.83
2018-10-11T12:27:12.511Z,22.84
2018-10-11T12:32:15.768Z,22.86
2018-10-11T12:37:19.057Z,22.90
2018-10-11T12:42:22.381Z,22.92
2018-10-11T12:47:25.632Z,22.95
2018-10-11T12:52:28.897Z,22.96
2018-10-11T12:57:32.228Z,22.98
2018-10-11T13:02:35.455Z,22.99
2018-10-11T13:07:38.872Z,23.01
2018-10-11T13:12:42.145Z,23.02
2018-10-11T13:17:45.408Z,22.95
2018-10-11T13:22:48.759Z,22.84
2018-10-11T13:27:51.989Z,22.81
2018-10-11T13:32:55.262Z,22.77
2018-10-11T13:37:58.539Z,22.83
2018-10-11T13:43:01.804Z,22.84
2018-10-11T13:48:05.076Z,22.82
2018-10-11T13:53:08.464Z,22.85
2018-10-11T13:58:11.664Z,22.86
2018-10-11T14:03:14.936Z,22.84
2018-10-11T14:08:18.215Z,22.78
2018-10-11T14:13:21.612Z,22.87
2018-10-11T14:18:24.884Z,22.89
2018-10-11T14:23:28.447Z,22.90
2018-10-11T14:28:31.788Z,22.93
2018-10-11T14:33:35.056Z,22.91
2018-10-11T14:38:38.332Z,22.92
2018-10-11T14:43:41.610Z,22.94
2018-10-11T14:48:45.597Z,22.90
2018-10-11T14:53:52.780Z,22.87
2018-10-11T14:58:52.264Z,22.78
2018-10-11T15:03:55.533Z,22.78
2018-10-11T15:08:58.887Z,22.92
2018-10-11T15:14:02.171Z,22.89
2018-10-11T15:19:05.462Z,22.87
2018-10-11T15:24:09.126Z,22.86
2018-10-11T15:29:13.167Z,22.88
2018-10-11T15:34:16.542Z,22.84
2018-10-11T15:39:19.885Z,22.85
2018-10-11T15:44:23.171Z,22.84
2018-10-11T15:49:26.432Z,22.75
2018-10-11T15:54:29.700Z,23.05
2018-10-11T15:59:32.968Z,23.09
2018-10-11T16:04:36.257Z,23.01
2018-10-11T16:09:39.981Z,23.09
2018-10-11T16:14:43.520Z,23.16
2018-10-11T16:19:46.788Z,23.13
2018-10-11T16:24:50.432Z,23.08
2018-10-11T16:29:53.665Z,23.08
2018-10-11T16:34:57.584Z,23.17
2018-10-11T16:40:00.954Z,23.33
2018-10-11T16:45:04.289Z,23.40
2018-10-11T16:50:07.764Z,23.42
2018-10-11T16:55:11.301Z,23.47
2018-10-11T17:00:14.596Z,23.49
2018-10-11T17:05:17.908Z,23.51
2018-10-11T17:10:21.223Z,23.54
2018-10-11T17:15:24.540Z,23.55
2018-10-11T17:20:27.836Z,23.57
2018-10-11T17:25:31.725Z,23.53
2018-10-11T17:30:35.072Z,23.52
2018-10-11T17:35:38.403Z,23.53
2018-10-11T17:40:41.705Z,23.56
2018-10-11T17:45:44.963Z,23.56
2018-10-11T17:50:48.329Z,23.54
2018-10-11T17:55:51.614Z,23.22
2018-10-11T18:00:54.900Z,23.14
2018-10-11T18:05:58.171Z,23.16
2018-10-11T18:11:01.441Z,23.21
2018-10-11T18:16:04.793Z,23.34
2018-10-11T18:46:23.203Z,23.30
2018-10-11T18:51:26.568Z,23.21
2018-10-11T18:56:29.872Z,23.09
2018-10-11T19:01:33.273Z,23.05
2018-10-11T19:06:36.668Z,23.04
2018-10-11T19:11:40.134Z,22.95
2018-10-11T19:16:43.483Z,22.95
2018-10-11T19:21:46.769Z,22.85
2018-10-11T19:26:50.066Z,22.88
2018-10-11T19:31:53.764Z,22.94
2018-10-11T19:36:57.040Z,22.84
2018-10-11T19:42:00.337Z,22.89
2018-10-11T19:47:03.625Z,22.90
2018-10-11T19:52:07.256Z,22.88
2018-10-11T19:57:10.715Z,22.85
2018-10-11T20:02:13.987Z,22.86
2018-10-11T20:07:17.259Z,22.82
2018-10-11T20:12:20.544Z,22.84
2018-10-11T20:17:23.893Z,22.79
2018-10-11T20:22:27.385Z,22.75
2018-10-11T20:27:31.159Z,22.78
2018-10-11T20:32:34.782Z,22.77
2018-10-11T20:37:38.068Z,22.71
2018-10-11T20:42:41.378Z,22.70
2018-10-11T20:47:44.661Z,22.75
2018-10-11T20:52:47.939Z,22.71
2018-10-11T20:57:51.207Z,22.75
2018-10-11T21:02:54.472Z,22.68
2018-10-11T21:07:57.744Z,22.68
2018-10-11T21:13:01.021Z,22.65
2018-10-11T21:18:04.365Z,22.63
2018-10-11T21:23:07.627Z,22.66
2018-10-11T21:28:10.939Z,22.69
2018-10-11T21:33:14.216Z,22.64
2018-10-11T21:38:17.760Z,22.63
2018-10-11T21:43:21.035Z,22.66
2018-10-11T21:48:24.304Z,22.64
2018-10-11T21:53:27.662Z,22.67
2018-10-11T21:58:30.946Z,22.57
2018-10-11T22:03:34.267Z,22.61
2018-10-11T22:08:37.656Z,22.59
2018-10-11T22:13:41.156Z,22.56
2018-10-11T22:18:44.469Z,22.59
2018-10-11T22:23:47.748Z,22.61
2018-10-11T22:28:51.019Z,22.59
2018-10-11T22:33:54.386Z,22.60
2018-10-11T22:38:57.818Z,22.56
2018-10-11T22:44:01.108Z,22.55
2018-10-11T22:49:04.489Z,22.59
2018-10-11T22:54:08.354Z,22.60
2018-10-11T22:59:11.640Z,22.60
2018-10-11T23:04:14.908Z,22.56
2018-10-11T23:09:18.188Z,22.56
2018-10-11T23:14:21.455Z,22.56
2018-10-11T23:19:24.719Z,22.57
2018-10-11T23:24:27.984Z,22.58
2018-10-11T23:29:31.260Z,22.50
2018-10-11T23:34:34.523Z,22.52
2018-10-11T23:39:37.796Z,22.51
2018-10-11T23:44:41.077Z,22.57
2018-10-11T23:49:44.356Z,22.55
2018-10-11T23:54:47.741Z,22.55
2018-10-11T23:59:51.016Z,22.56
